createdAt,value
2023-01-13T00:02:15.622Z,50.45
2023-01-13T00:05:00.927Z,50.39
2023-01-13T00:07:46.519Z,50.45
2023-01-13T00:10:34.126Z,50.52
2023-01-13T00:13:26.695Z,50.48
2023-01-13T00:16:15.643Z,50.29
2023-01-13T00:19:01.373Z,50.39
2023-01-13T00:21:46.557Z,50.37
2023-01-13T00:24:31.962Z,50.44
2023-01-13T00:27:17.235Z,50.50
2023-01-13T00:30:03.610Z,50.56
2023-01-13T00:32:48.890Z,50.42
2023-01-13T00:35:34.216Z,50.49
2023-01-13T00:38:19.605Z,50.63
2023-01-13T00:41:07.451Z,50.64
2023-01-13T00:43:53.224Z,50.60
2023-01-13T00:46:38.936Z,50.46
2023-01-13T00:49:24.246Z,50.73
2023-01-13T00:52:09.650Z,50.73
2023-01-13T00:54:54.807Z,50.73
2023-01-13T00:57:40.175Z,50.73
2023-01-13T01:00:25.338Z,50.64
2023-01-13T01:03:12.335Z,50.33
2023-01-13T01:06:03.452Z,50.70
2023-01-13T01:08:49.562Z,50.80
2023-01-13T01:11:35.220Z,50.44
2023-01-13T01:14:20.674Z,50.59
2023-01-13T01:17:05.975Z,50.55
2023-01-13T01:19:51.248Z,50.58
2023-01-13T01:22:36.580Z,50.66
2023-01-13T01:25:21.877Z,50.65
2023-01-13T01:28:07.204Z,50.43
2023-01-13T01:30:54.516Z,50.70
2023-01-13T01:33:41.210Z,50.57
2023-01-13T01:36:29.965Z,50.61
2023-01-13T01:39:15.219Z,50.61
2023-01-13T01:42:19.066Z,50.69
2023-01-13T01:45:22.518Z,50.70
2023-01-13T01:48:09.318Z,50.70
2023-01-13T01:50:54.768Z,50.80
2023-01-13T01:53:41.841Z,50.70
2023-01-13T01:56:27.421Z,50.75
2023-01-13T01:59:13.468Z,50.79
2023-01-13T02:01:59.404Z,50.82
2023-01-13T02:04:51.169Z,50.84
2023-01-13T02:07:39.006Z,50.71
2023-01-13T02:10:28.250Z,50.86
2023-01-13T02:13:14.081Z,50.81
2023-01-13T02:16:11.671Z,50.83
2023-01-13T02:19:14.911Z,50.97
2023-01-13T02:22:20.614Z,50.76
2023-01-13T02:25:47.063Z,50.81
2023-01-13T02:29:04.851Z,51.07
2023-01-13T02:31:56.080Z,50.77
2023-01-13T02:34:55.688Z,50.95
2023-01-13T02:37:44.034Z,50.71
2023-01-13T02:40:38.095Z,50.63
2023-01-13T02:43:54.018Z,50.83
2023-01-13T02:46:48.687Z,50.80
2023-01-13T02:49:59.658Z,50.91
2023-01-13T02:52:54.270Z,50.75
2023-01-13T02:55:46.854Z,50.62
2023-01-13T02:58:36.456Z,50.83
2023-01-13T03:01:22.445Z,50.67
2023-01-13T03:04:32.775Z,50.84
2023-01-13T03:07:43.404Z,50.98
2023-01-13T03:10:47.510Z,50.97
2023-01-13T03:13:54.625Z,50.94
2023-01-13T03:16:58.012Z,50.95
2023-01-13T03:20:14.052Z,50.93
2023-01-13T03:23:28.157Z,51.06
2023-01-13T03:26:27.956Z,51.01
2023-01-13T03:29:35.942Z,51.19
2023-01-13T03:32:29.908Z,50.87
2023-01-13T03:35:27.227Z,50.96
2023-01-13T03:38:21.822Z,51.11
2023-01-13T03:41:19.104Z,50.93
2023-01-13T03:44:24.971Z,50.77
2023-01-13T03:47:49.442Z,50.82
2023-01-13T03:50:40.981Z,50.64
2023-01-13T03:53:35.103Z,50.51
2023-01-13T03:56:30.070Z,50.57
2023-01-13T03:59:22.615Z,50.49
2023-01-13T04:02:19.816Z,50.54
2023-01-13T04:05:09.308Z,50.69
2023-01-13T04:08:13.247Z,50.83
2023-01-13T04:11:05.686Z,50.86
2023-01-13T04:13:53.647Z,50.94
2023-01-13T04:16:39.307Z,51.06
2023-01-13T04:19:25.043Z,51.18
2023-01-13T04:22:10.310Z,51.19
2023-01-13T04:24:55.620Z,50.75
2023-01-13T04:27:40.745Z,51.28
2023-01-13T04:30:25.947Z,51.08
2023-01-13T04:33:12.018Z,51.30
2023-01-13T04:35:57.492Z,51.04
2023-01-13T04:38:42.927Z,51.14
2023-01-13T04:41:28.207Z,51.29
2023-01-13T04:44:13.540Z,51.47
2023-01-13T04:46:58.930Z,51.99
2023-01-13T04:49:44.176Z,52.41
2023-01-13T04:52:29.609Z,52.13
2023-01-13T04:55:15.836Z,52.11
2023-01-13T04:58:03.188Z,52.15
2023-01-13T05:00:50.543Z,52.26
2023-01-13T05:03:35.804Z,52.62
2023-01-13T05:06:20.895Z,52.46
2023-01-13T05:09:06.241Z,52.47
2023-01-13T05:12:09.935Z,52.38
2023-01-13T05:15:13.779Z,51.85
2023-01-13T05:17:59.353Z,52.31
2023-01-13T05:20:45.132Z,52.76
2023-01-13T05:23:49.261Z,52.93
2023-01-13T05:26:34.525Z,53.27
2023-01-13T05:29:19.744Z,53.23
2023-01-13T05:32:07.804Z,53.32
2023-01-13T05:34:53.922Z,53.28
2023-01-13T05:37:39.482Z,53.07
2023-01-13T05:40:43.679Z,52.55
2023-01-13T05:43:30.034Z,52.22
2023-01-13T05:46:17.885Z,52.16
2023-01-13T05:49:03.666Z,52.22
2023-01-13T05:51:48.774Z,51.93
2023-01-13T05:54:34.117Z,51.94
2023-01-13T05:57:19.442Z,51.89
2023-01-13T06:00:05.453Z,52.12
2023-01-13T06:02:56.927Z,53.22
2023-01-13T06:05:42.843Z,53.44
2023-01-13T06:08:28.308Z,53.84
2023-01-13T06:11:13.638Z,53.69
2023-01-13T06:13:58.957Z,53.73
2023-01-13T06:16:45.560Z,53.56
2023-01-13T06:19:31.669Z,53.69
2023-01-13T06:22:35.706Z,53.36
2023-01-13T06:25:39.549Z,53.15
2023-01-13T06:28:25.097Z,53.31
2023-01-13T06:31:11.210Z,53.26
2023-01-13T06:34:13.525Z,53.24
2023-01-13T06:36:58.794Z,53.26
2023-01-13T06:39:44.380Z,53.25
2023-01-13T06:42:52.775Z,53.18
2023-01-13T06:45:37.941Z,53.20
2023-01-13T06:48:27.907Z,53.07
2023-01-13T06:51:13.291Z,53.22
2023-01-13T06:53:58.453Z,53.07
2023-01-13T06:56:43.875Z,52.92
2023-01-13T06:59:29.310Z,52.93
2023-01-13T07:02:14.495Z,52.83
2023-01-13T07:05:00.343Z,52.90
2023-01-13T07:07:45.663Z,52.80
2023-01-13T07:10:32.120Z,52.80
2023-01-13T07:13:36.143Z,52.74
2023-01-13T07:16:21.168Z,52.77
2023-01-13T07:19:06.680Z,52.75
2023-01-13T07:21:52.486Z,52.60
2023-01-13T07:24:38.616Z,52.69
2023-01-13T07:27:24.083Z,52.44
2023-01-13T07:30:10.267Z,52.51
2023-01-13T07:32:56.044Z,52.41
2023-01-13T07:35:41.915Z,52.44
2023-01-13T07:38:27.633Z,52.36
2023-01-13T07:41:33.539Z,52.41
2023-01-13T07:44:18.787Z,52.26
2023-01-13T07:47:05.953Z,52.18
2023-01-13T07:49:51.332Z,52.32
2023-01-13T07:52:36.629Z,52.03
2023-01-13T07:55:21.854Z,51.87
2023-01-13T07:58:07.822Z,51.90
2023-01-13T08:00:53.903Z,51.77
2023-01-13T08:03:40.357Z,51.80
2023-01-13T08:06:26.675Z,51.82
2023-01-13T08:09:12.322Z,51.85
2023-01-13T08:12:16.117Z,51.62
2023-01-13T08:15:01.486Z,51.72
2023-01-13T08:17:46.860Z,51.57
2023-01-13T08:20:32.185Z,51.38
2023-01-13T08:23:17.448Z,51.58
2023-01-13T08:26:05.397Z,51.54
2023-01-13T08:28:50.620Z,51.43
2023-01-13T08:31:35.950Z,51.37
2023-01-13T08:34:21.329Z,51.46
2023-01-13T08:37:06.680Z,51.39
2023-01-13T08:39:52.002Z,51.56
2023-01-13T08:42:37.349Z,51.44
2023-01-13T08:45:22.864Z,51.50
2023-01-13T08:48:08.486Z,51.50
2023-01-13T08:50:54.106Z,51.54
2023-01-13T08:53:39.732Z,51.46
2023-01-13T08:56:25.038Z,51.33
2023-01-13T08:59:15.269Z,51.31
2023-01-13T09:02:01.005Z,51.19
2023-01-13T09:04:47.019Z,51.23
2023-01-13T09:07:33.948Z,51.20
2023-01-13T09:10:19.245Z,51.19
2023-01-13T09:13:13.521Z,51.11
2023-01-13T09:15:59.158Z,51.10
2023-01-13T09:18:44.758Z,50.97
2023-01-13T09:21:30.472Z,50.81
2023-01-13T09:32:32.536Z,50.67
2023-01-13T09:35:17.435Z,50.77
2023-01-13T09:38:01.672Z,50.55
2023-01-13T09:40:48.274Z,50.64
2023-01-13T09:43:52.969Z,50.48
2023-01-13T09:46:48.078Z,50.63
2023-01-13T09:49:40.025Z,50.66
2023-01-13T09:52:27.889Z,50.55
2023-01-13T09:55:30.013Z,50.78
2023-01-13T09:58:18.287Z,50.72
2023-01-13T10:01:16.404Z,50.67
2023-01-13T10:04:11.260Z,50.55
2023-01-13T10:07:03.079Z,50.55
2023-01-13T10:09:53.129Z,50.57
2023-01-13T10:12:58.340Z,50.47
2023-01-13T10:16:08.497Z,50.59
2023-01-13T10:19:11.300Z,50.42
2023-01-13T10:22:11.342Z,50.54
2023-01-13T10:24:59.777Z,50.35
2023-01-13T10:27:49.895Z,50.43
2023-01-13T10:30:46.428Z,50.27
2023-01-13T10:33:31.635Z,50.27
2023-01-13T10:36:21.473Z,50.28
2023-01-13T10:39:15.886Z,50.10
2023-01-13T10:42:06.184Z,50.12
2023-01-13T10:44:57.056Z,50.10
2023-01-13T10:47:42.906Z,50.03
2023-01-13T10:50:29.775Z,50.05
2023-01-13T10:53:23.755Z,50.03
2023-01-13T10:56:17.689Z,49.80
2023-01-13T10:59:15.465Z,49.85
2023-01-13T11:02:25.340Z,49.83
2023-01-13T11:05:24.488Z,49.69
2023-01-13T11:08:18.568Z,49.71
2023-01-13T11:11:23.991Z,49.97
2023-01-13T11:14:36.427Z,49.81
2023-01-13T11:17:21.671Z,49.86
2023-01-13T11:20:33.824Z,49.88
2023-01-13T11:23:27.384Z,49.87
2023-01-13T11:26:30.401Z,49.77
2023-01-13T11:29:27.669Z,49.93
2023-01-13T11:32:18.848Z,49.89
2023-01-13T11:35:15.387Z,49.72
2023-01-13T11:38:13.289Z,49.63
2023-01-13T11:41:09.045Z,49.55
2023-01-13T11:44:04.207Z,49.58
2023-01-13T11:46:53.865Z,49.61
2023-01-13T11:49:39.837Z,49.56
2023-01-13T11:52:57.541Z,49.70
2023-01-13T11:56:00.921Z,49.55
2023-01-13T11:59:02.375Z,49.54
2023-01-13T12:02:06.425Z,49.62
2023-01-13T12:05:01.183Z,49.53
2023-01-13T12:07:55.486Z,49.49
2023-01-13T12:10:50.052Z,49.40
2023-01-13T12:13:44.512Z,49.45
2023-01-13T12:16:31.712Z,49.50
2023-01-13T12:19:26.093Z,49.55
2023-01-13T12:22:31.870Z,49.63
2023-01-13T12:25:23.451Z,49.60
2023-01-13T12:28:17.229Z,49.49
2023-01-13T12:31:03.261Z,49.57
2023-01-13T12:33:51.923Z,49.68
2023-01-13T12:36:52.306Z,49.51
2023-01-13T12:39:56.760Z,49.37
2023-01-13T12:43:27.562Z,49.48
2023-01-13T12:46:19.080Z,49.44
2023-01-13T12:49:06.115Z,49.38
2023-01-13T12:51:54.383Z,49.31
2023-01-13T12:54:39.441Z,49.27
2023-01-13T12:57:32.671Z,49.26
2023-01-13T13:00:18.773Z,49.40
2023-01-13T13:03:13.800Z,49.24
2023-01-13T13:06:24.033Z,49.25
2023-01-13T13:09:29.322Z,49.41
2023-01-13T13:12:49.147Z,49.81
2023-01-13T13:15:36.515Z,49.85
2023-01-13T13:18:27.181Z,49.91
2023-01-13T13:21:12.603Z,50.03
2023-01-13T13:24:03.969Z,49.99
2023-01-13T13:26:49.354Z,50.04
2023-01-13T13:29:48.517Z,50.01
2023-01-13T13:32:46.248Z,49.97
2023-01-13T13:35:52.051Z,49.95
2023-01-13T13:39:28.720Z,49.69
2023-01-13T13:42:41.468Z,49.46
2023-01-13T13:45:46.082Z,49.28
2023-01-13T13:48:31.869Z,49.34
2023-01-13T13:51:32.172Z,49.17
2023-01-13T13:54:21.989Z,49.10
2023-01-13T13:57:17.812Z,49.14
2023-01-13T14:00:20.794Z,49.05
2023-01-13T14:03:08.137Z,49.02
2023-01-13T14:06:02.710Z,49.12
2023-01-13T14:08:50.479Z,49.05
2023-01-13T14:11:36.377Z,48.99
2023-01-13T14:14:21.490Z,49.12
2023-01-13T14:17:06.979Z,49.53
2023-01-13T14:20:05.357Z,49.82
2023-01-13T14:22:54.002Z,50.02
2023-01-13T14:25:51.217Z,50.25
2023-01-13T14:28:41.258Z,50.41
2023-01-13T14:31:27.265Z,50.50
2023-01-13T14:34:32.614Z,50.64
2023-01-13T14:37:24.577Z,50.26
2023-01-13T14:40:39.305Z,50.61
2023-01-13T14:43:26.016Z,50.37
2023-01-13T14:46:12.440Z,50.46
2023-01-13T14:49:02.647Z,50.38
2023-01-13T14:51:48.008Z,50.41
2023-01-13T14:54:52.888Z,50.24
2023-01-13T14:57:41.400Z,50.16
2023-01-13T15:00:26.865Z,50.10
2023-01-13T15:03:15.734Z,50.09
2023-01-13T15:06:01.633Z,49.93
2023-01-13T15:08:47.204Z,49.94
2023-01-13T15:11:32.934Z,50.02
2023-01-13T15:14:26.856Z,50.34
2023-01-13T15:17:17.624Z,50.54
2023-01-13T15:20:03.335Z,50.32
2023-01-13T15:22:49.872Z,50.15
2023-01-13T15:25:38.922Z,50.05
2023-01-13T15:28:26.168Z,50.06
2023-01-13T15:31:11.469Z,49.88
2023-01-13T15:33:57.016Z,49.87
2023-01-13T15:36:42.681Z,49.78
2023-01-13T15:39:27.934Z,49.69
2023-01-13T15:42:32.163Z,49.55
2023-01-13T15:45:36.022Z,49.53
2023-01-13T15:48:21.862Z,49.60
2023-01-13T15:51:07.331Z,49.72
2023-01-13T15:53:52.763Z,49.64
2023-01-13T15:56:39.105Z,49.55
2023-01-13T15:59:27.163Z,49.49
2023-01-13T16:02:15.952Z,49.54
2023-01-13T16:05:01.551Z,49.47
2023-01-13T16:07:47.094Z,49.43
2023-01-13T16:10:32.500Z,49.44
2023-01-13T16:13:18.161Z,49.25
2023-01-13T16:16:12.881Z,49.42
2023-01-13T16:18:58.330Z,49.57
2023-01-13T16:21:45.284Z,49.61
2023-01-13T16:24:30.870Z,49.68
2023-01-13T16:27:22.918Z,49.77
2023-01-13T16:30:29.706Z,49.68
2023-01-13T16:33:15.575Z,49.60
2023-01-13T16:36:10.408Z,49.68
2023-01-13T16:38:58.194Z,49.79
2023-01-13T16:41:43.187Z,49.58
2023-01-13T16:44:28.596Z,49.68
2023-01-13T16:47:16.186Z,50.16
2023-01-13T16:50:01.609Z,51.08
2023-01-13T16:52:46.906Z,51.35
2023-01-13T16:55:32.665Z,50.77
2023-01-13T16:58:20.108Z,51.07
2023-01-13T17:01:06.290Z,50.87
2023-01-13T17:03:52.354Z,50.37
2023-01-13T17:06:41.868Z,50.15
2023-01-13T17:09:28.692Z,49.96
2023-01-13T17:12:14.223Z,49.73
2023-01-13T17:14:59.935Z,49.63
2023-01-13T17:17:48.130Z,49.51
2023-01-13T17:20:33.648Z,49.70
2023-01-13T17:23:18.944Z,49.53
2023-01-13T17:26:04.719Z,49.36
2023-01-13T17:28:49.955Z,49.17
2023-01-13T17:31:36.350Z,49.22
2023-01-13T17:34:22.097Z,49.07
2023-01-13T17:37:09.271Z,49.00
2023-01-13T17:39:55.767Z,49.00
2023-01-13T17:42:41.176Z,48.76
2023-01-13T17:45:26.606Z,49.35
2023-01-13T17:48:12.780Z,49.34
2023-01-13T17:50:58.477Z,49.11
2023-01-13T17:53:45.463Z,49.22
2023-01-13T17:56:31.271Z,49.26
2023-01-13T17:59:19.493Z,49.23
2023-01-13T18:02:05.181Z,49.36
2023-01-13T18:04:50.512Z,49.65
2023-01-13T18:07:35.745Z,49.86
2023-01-13T18:10:21.095Z,49.88
2023-01-13T18:13:07.198Z,50.20
2023-01-13T18:16:13.080Z,50.58
2023-01-13T18:19:19.089Z,50.77
2023-01-13T18:22:22.918Z,51.01
2023-01-13T18:25:35.510Z,51.17
2023-01-13T18:28:20.869Z,51.29
2023-01-13T18:31:06.223Z,51.39
2023-01-13T18:33:51.417Z,51.22
2023-01-13T18:36:37.675Z,51.30
2023-01-13T18:39:23.422Z,51.31
2023-01-13T18:42:29.518Z,51.38
2023-01-13T18:45:14.984Z,51.40
2023-01-13T18:48:02.732Z,51.13
2023-01-13T18:50:47.978Z,50.97
2023-01-13T18:53:33.396Z,50.90
2023-01-13T18:56:19.122Z,50.69
2023-01-13T18:59:04.837Z,50.76
2023-01-13T19:01:52.110Z,50.49
2023-01-13T19:04:38.231Z,50.64
2023-01-13T19:07:28.312Z,50.54
2023-01-13T19:10:13.583Z,50.50
2023-01-13T19:12:58.908Z,50.30
2023-01-13T19:15:44.447Z,49.94
2023-01-13T19:18:29.549Z,49.83
2023-01-13T19:21:15.328Z,49.90
2023-01-13T19:24:00.722Z,49.68
2023-01-13T19:26:48.896Z,49.98
2023-01-13T19:29:34.991Z,49.85
2023-01-13T19:32:22.402Z,49.93
2023-01-13T19:35:08.740Z,49.87
2023-01-13T19:37:54.580Z,49.79
2023-01-13T19:40:39.742Z,49.84
2023-01-13T19:43:44.169Z,50.23
2023-01-13T19:46:29.586Z,50.42
2023-01-13T19:49:14.916Z,50.66
2023-01-13T19:52:00.734Z,50.31
2023-01-13T19:54:47.155Z,50.26
2023-01-13T19:57:33.137Z,50.15
2023-01-13T20:00:21.045Z,50.09
2023-01-13T20:03:10.657Z,50.29
2023-01-13T20:05:55.836Z,50.25
2023-01-13T20:08:42.018Z,50.21
2023-01-13T20:11:31.204Z,50.30
2023-01-13T20:14:18.113Z,50.37
2023-01-13T20:17:03.527Z,50.06
2023-01-13T20:19:48.993Z,49.79
2023-01-13T20:22:37.238Z,50.22
2023-01-13T20:25:22.725Z,49.92
2023-01-13T20:28:07.934Z,49.98
2023-01-13T20:30:53.546Z,49.75
2023-01-13T20:33:39.206Z,49.91
2023-01-13T20:36:30.675Z,50.17
2023-01-13T20:39:22.385Z,50.36
2023-01-13T20:42:27.603Z,50.13
2023-01-13T20:45:17.410Z,50.01
2023-01-13T20:48:02.661Z,50.08
2023-01-13T20:50:54.305Z,49.91
2023-01-13T20:53:41.523Z,49.71
2023-01-13T20:56:26.796Z,49.47
2023-01-13T20:59:12.772Z,49.45
2023-01-13T21:01:58.256Z,49.36
2023-01-13T21:04:44.056Z,49.35
2023-01-13T21:07:29.633Z,49.38
2023-01-13T21:10:14.992Z,49.26
2023-01-13T21:13:19.034Z,49.22
2023-01-13T21:16:04.339Z,49.23
2023-01-13T21:19:07.638Z,49.43
2023-01-13T21:21:54.247Z,49.42
2023-01-13T21:24:39.581Z,49.17
2023-01-13T21:27:25.851Z,49.20
2023-01-13T21:30:15.586Z,49.16
2023-01-13T21:33:01.196Z,49.15
2023-01-13T21:35:46.653Z,48.95
2023-01-13T21:38:33.262Z,48.95
2023-01-13T21:41:38.986Z,48.92
2023-01-13T21:44:43.268Z,48.80
2023-01-13T21:47:47.203Z,49.06
2023-01-13T21:50:32.331Z,49.03
2023-01-13T21:53:18.525Z,48.54
2023-01-13T21:56:03.965Z,48.11
2023-01-13T21:58:51.893Z,48.15
2023-01-13T22:01:37.421Z,48.59
2023-01-13T22:04:42.863Z,48.58
2023-01-13T22:07:28.568Z,48.78
2023-01-13T22:10:19.763Z,48.50
2023-01-13T22:13:23.947Z,48.13
2023-01-13T22:16:09.490Z,48.23
2023-01-13T22:18:55.038Z,48.30
2023-01-13T22:21:40.349Z,48.32
2023-01-13T22:24:25.524Z,48.20
2023-01-13T22:27:11.207Z,48.12
2023-01-13T22:29:56.873Z,47.95
2023-01-13T22:32:42.594Z,47.79
2023-01-13T22:35:27.959Z,47.84
2023-01-13T22:38:13.169Z,48.07
2023-01-13T22:40:59.655Z,48.04
2023-01-13T22:43:44.888Z,48.13
2023-01-13T22:46:30.172Z,48.27
2023-01-13T22:49:16.815Z,47.96
2023-01-13T22:52:02.446Z,47.90
2023-01-13T22:54:47.769Z,48.04
2023-01-13T22:57:36.472Z,48.09
2023-01-13T23:00:27.885Z,48.22
2023-01-13T23:03:13.116Z,48.22
2023-01-13T23:05:58.461Z,48.32
2023-01-13T23:08:44.344Z,47.83
2023-01-13T23:11:30.600Z,47.69
2023-01-13T23:14:16.342Z,48.00
2023-01-13T23:17:01.928Z,48.25
2023-01-13T23:19:47.055Z,48.21
2023-01-13T23:22:32.385Z,48.49
2023-01-13T23:25:17.726Z,48.16
2023-01-13T23:28:03.119Z,47.80
2023-01-13T23:30:49.515Z,47.62
2023-01-13T23:33:35.885Z,47.70
2023-01-13T23:36:23.648Z,48.02
2023-01-13T23:39:09.078Z,47.93
2023-01-13T23:41:54.901Z,47.83
2023-01-13T23:44:40.265Z,48.03
2023-01-13T23:47:25.518Z,47.70
2023-01-13T23:50:11.225Z,47.77
2023-01-13T23:52:56.656Z,47.93
2023-01-13T23:55:41.987Z,47.80
2023-01-13T23:58:28.551Z,48.03
